Charlottesville Albemarle Airport
KCHO : rendu visible

Aérodrome :











RETROUVEZ-NOUS SUR...

 
LOGIN :

S'inscrire | Disclaimer

   EN    FR    IT 

 









Légende :    VFR   VFR Marginal   IFR   IFR Intensif   IFR Très Intensif
Visi : 
Plafond : 
>= 8 km
>= 3000ft
5 à 8 km
1000 à 3000 ft
1500m à 5 km
500 à 1000 ft
800 à 1500m
200 à 500 ft
< 800m
< 200 ft
Symboles :   Orages  Brouillard  Fortes neiges  Fortes précipitations  Vent > 20 kt






- Altitude de l'aérodrome : 639 ft
- Code IATA : CHO


KCHO - Charlottesville Albemarle

DERNIER METAR :
  • 261653Z 00000KT 10SM BKN034 26/17 A3020 RMK AO2 SLP220 T02560167

METARs EXPIRÉS :
  • 261606Z 00000KT 10SM BKN027 OVC036 24/17 A3021 RMK AO2 T02440172
  • 261553Z 00000KT 10SM FEW023 BKN036 23/16 A3021 RMK AO2 SLP224 T02330161
  • 261453Z 00000KT 10SM FEW018 BKN035 23/17 A3022 RMK AO2 SLP227 T02280172 51002
  • 261408Z 00000KT 10SM BKN016 22/17 A3022 RMK AO2 T02170167

TAF KCHO
Valide du 26 à 12h jusqu'au 27 à 12h UTC


261151Z 2612/2712 08003KT P6SM BKN020
FM261700 09004KT P6SM BKN200
FM262300 12006KT P6SM SCT250
FM270300 VRB03KT P6SM BKN035
FM270800 00000KT 4SM BR BKN003
FIR KZDC / Amérique du Nord



MET'MAP, la Météo Aéronautique d'un coup d'oeil ! - Copyright ORBIFLY Décembre 2007 - Disclaimer

ORBIFLY MET'MAP TEAM :

Programmation & Développement : Alexandra Zaïnal
Sur une idée originale de : Baudouin d'Aumeries
Assistance à la programmation : Marc-Olivier Méhu
Soutien technique & logistique : Manuel Goepfert

Contact : metmap@orbifly.com




SOURCES & CREDITS :

   NOAA       Earth
Advisory